<?xml version="1.0" encoding="UTF-8" standalone="no" ?>
<gpx xmlns="http://www.topografix.com/GPX/1/1" xmlns:xsi="http://www.w3.org/2001/XMLSchema-instance" xsi:schemaLocation="http://www.topografix.com/GPX/1/1 http://www.topografix.com/GPX/1/1/gpx.xsd" version="1.1" creator="VisuGPX - https://www.visugpx.com">
  <metadata>
    <name>Le sentier de l'Ermite</name>
    <desc><![CDATA[Il s'agit d'un parcours "découverte" autour de Muret. Il sert de base aussi aux deux autres sentiers : le sentier du Dolmen et le sentier des Puys. Après le passage entre les deux étangs, le sentier suit une piste jusqu'à l'étang des Gardèches et s'enfonce dans la forêt. Il passe à proximité de la fontaine et de l'oratoire de Saint-Etienne et plus loin, il passe à côté d'un dolmen. A découvrir pour les curieux(ses)...Le retour se fait plus à découvert avec une petite descente technique.]]></desc>
  </metadata>
  <trk>
    <name><![CDATA[OR-7132608--Ambazac:Sentier des Ermites 4 km]]></name>
    <trkseg>
      <trkpt lat="45.95193" lon="1.38914">
        <ele>396</ele>
        <time>2017-04-26T00:10:21Z</time>
      </trkpt>
      <trkpt lat="45.95135" lon="1.38865">
        <ele>391</ele>
        <time>2017-04-26T00:12:21Z</time>
      </trkpt>
      <trkpt lat="45.95121" lon="1.38808">
        <ele>391</ele>
        <time>2017-04-26T00:14:21Z</time>
      </trkpt>
      <trkpt lat="45.95083" lon="1.38757">
        <ele>391</ele>
        <time>2017-04-26T00:16:21Z</time>
      </trkpt>
      <trkpt lat="45.94957" lon="1.38595">
        <ele>400</ele>
        <time>2017-04-26T00:18:21Z</time>
      </trkpt>
      <trkpt lat="45.94951" lon="1.38573">
        <ele>400</ele>
        <time>2017-04-26T00:20:21Z</time>
      </trkpt>
      <trkpt lat="45.94985" lon="1.38269">
        <ele>399</ele>
        <time>2017-04-26T00:22:21Z</time>
      </trkpt>
      <trkpt lat="45.94973" lon="1.3827">
        <ele>399</ele>
        <time>2017-04-26T00:24:21Z</time>
      </trkpt>
      <trkpt lat="45.94956" lon="1.38283">
        <ele>398</ele>
        <time>2017-04-26T00:26:21Z</time>
      </trkpt>
      <trkpt lat="45.9492" lon="1.38316">
        <ele>396</ele>
        <time>2017-04-26T00:28:21Z</time>
      </trkpt>
      <trkpt lat="45.94894" lon="1.38332">
        <ele>396</ele>
        <time>2017-04-26T00:30:21Z</time>
      </trkpt>
      <trkpt lat="45.94878" lon="1.3832">
        <ele>397</ele>
        <time>2017-04-26T00:32:21Z</time>
      </trkpt>
      <trkpt lat="45.94853" lon="1.3829">
        <ele>399</ele>
        <time>2017-04-26T00:34:21Z</time>
      </trkpt>
      <trkpt lat="45.94819" lon="1.38224">
        <ele>405</ele>
        <time>2017-04-26T00:36:21Z</time>
      </trkpt>
      <trkpt lat="45.94792" lon="1.38128">
        <ele>409</ele>
        <time>2017-04-26T00:38:21Z</time>
      </trkpt>
      <trkpt lat="45.94741" lon="1.38084">
        <ele>413</ele>
        <time>2017-04-26T00:40:21Z</time>
      </trkpt>
      <trkpt lat="45.94682" lon="1.38031">
        <ele>414</ele>
        <time>2017-04-26T00:42:21Z</time>
      </trkpt>
      <trkpt lat="45.94671" lon="1.38013">
        <ele>413</ele>
        <time>2017-04-26T00:44:21Z</time>
      </trkpt>
      <trkpt lat="45.94624" lon="1.37925">
        <ele>412</ele>
        <time>2017-04-26T00:46:21Z</time>
      </trkpt>
      <trkpt lat="45.94605" lon="1.37903">
        <ele>413</ele>
        <time>2017-04-26T00:48:21Z</time>
      </trkpt>
      <trkpt lat="45.94578" lon="1.37901">
        <ele>414</ele>
        <time>2017-04-26T00:50:21Z</time>
      </trkpt>
      <trkpt lat="45.94547" lon="1.37914">
        <ele>412</ele>
        <time>2017-04-26T00:52:21Z</time>
      </trkpt>
      <trkpt lat="45.94504" lon="1.37929">
        <ele>410</ele>
        <time>2017-04-26T00:54:21Z</time>
      </trkpt>
      <trkpt lat="45.94459" lon="1.37925">
        <ele>407</ele>
        <time>2017-04-26T00:56:21Z</time>
      </trkpt>
      <trkpt lat="45.94399" lon="1.37929">
        <ele>404</ele>
        <time>2017-04-26T00:58:21Z</time>
      </trkpt>
      <trkpt lat="45.94333" lon="1.37928">
        <ele>402</ele>
        <time>2017-04-26T01:00:21Z</time>
      </trkpt>
      <trkpt lat="45.94317" lon="1.3789">
        <ele>402</ele>
        <time>2017-04-26T01:02:21Z</time>
      </trkpt>
      <trkpt lat="45.94296" lon="1.37869">
        <ele>400</ele>
        <time>2017-04-26T01:04:21Z</time>
      </trkpt>
      <trkpt lat="45.94314" lon="1.37823">
        <ele>399</ele>
        <time>2017-04-26T01:06:21Z</time>
      </trkpt>
      <trkpt lat="45.94343" lon="1.37778">
        <ele>398</ele>
        <time>2017-04-26T01:08:21Z</time>
      </trkpt>
      <trkpt lat="45.94378" lon="1.37735">
        <ele>399</ele>
        <time>2017-04-26T01:10:21Z</time>
      </trkpt>
      <trkpt lat="45.94396" lon="1.37698">
        <ele>400</ele>
        <time>2017-04-26T01:12:21Z</time>
      </trkpt>
      <trkpt lat="45.94448" lon="1.37623">
        <ele>403</ele>
        <time>2017-04-26T01:14:21Z</time>
      </trkpt>
      <trkpt lat="45.94478" lon="1.37542">
        <ele>403</ele>
        <time>2017-04-26T01:16:21Z</time>
      </trkpt>
      <trkpt lat="45.94513" lon="1.37438">
        <ele>409</ele>
        <time>2017-04-26T01:18:21Z</time>
      </trkpt>
      <trkpt lat="45.94518" lon="1.37403">
        <ele>411</ele>
        <time>2017-04-26T01:20:21Z</time>
      </trkpt>
      <trkpt lat="45.9454" lon="1.37395">
        <ele>411</ele>
        <time>2017-04-26T01:22:21Z</time>
      </trkpt>
      <trkpt lat="45.94594" lon="1.37395">
        <ele>413</ele>
        <time>2017-04-26T01:24:21Z</time>
      </trkpt>
      <trkpt lat="45.94657" lon="1.374">
        <ele>416</ele>
        <time>2017-04-26T01:26:21Z</time>
      </trkpt>
      <trkpt lat="45.94696" lon="1.37402">
        <ele>416</ele>
        <time>2017-04-26T01:28:21Z</time>
      </trkpt>
      <trkpt lat="45.94733" lon="1.37389">
        <ele>417</ele>
        <time>2017-04-26T01:30:21Z</time>
      </trkpt>
      <trkpt lat="45.9478" lon="1.37407">
        <ele>416</ele>
        <time>2017-04-26T01:32:21Z</time>
      </trkpt>
      <trkpt lat="45.94817" lon="1.37444">
        <ele>415</ele>
        <time>2017-04-26T01:34:21Z</time>
      </trkpt>
      <trkpt lat="45.94856" lon="1.37494">
        <ele>412</ele>
        <time>2017-04-26T01:36:21Z</time>
      </trkpt>
      <trkpt lat="45.94873" lon="1.37506">
        <ele>411</ele>
        <time>2017-04-26T01:38:21Z</time>
      </trkpt>
      <trkpt lat="45.94906" lon="1.37513">
        <ele>411</ele>
        <time>2017-04-26T01:40:21Z</time>
      </trkpt>
      <trkpt lat="45.94963" lon="1.37509">
        <ele>411</ele>
        <time>2017-04-26T01:42:21Z</time>
      </trkpt>
      <trkpt lat="45.95014" lon="1.37519">
        <ele>409</ele>
        <time>2017-04-26T01:44:21Z</time>
      </trkpt>
      <trkpt lat="45.95073" lon="1.3753">
        <ele>407</ele>
        <time>2017-04-26T01:46:21Z</time>
      </trkpt>
      <trkpt lat="45.95115" lon="1.37522">
        <ele>407</ele>
        <time>2017-04-26T01:48:21Z</time>
      </trkpt>
      <trkpt lat="45.95151" lon="1.37542">
        <ele>408</ele>
        <time>2017-04-26T01:50:21Z</time>
      </trkpt>
      <trkpt lat="45.9518" lon="1.37569">
        <ele>409</ele>
        <time>2017-04-26T01:52:21Z</time>
      </trkpt>
      <trkpt lat="45.95224" lon="1.37579">
        <ele>409</ele>
        <time>2017-04-26T01:54:21Z</time>
      </trkpt>
      <trkpt lat="45.95243" lon="1.37605">
        <ele>409</ele>
        <time>2017-04-26T01:56:21Z</time>
      </trkpt>
      <trkpt lat="45.95262" lon="1.37641">
        <ele>409</ele>
        <time>2017-04-26T01:58:21Z</time>
      </trkpt>
      <trkpt lat="45.95282" lon="1.37681">
        <ele>409</ele>
        <time>2017-04-26T02:00:21Z</time>
      </trkpt>
      <trkpt lat="45.95291" lon="1.37703">
        <ele>409</ele>
        <time>2017-04-26T02:02:21Z</time>
      </trkpt>
      <trkpt lat="45.95285" lon="1.37729">
        <ele>408</ele>
        <time>2017-04-26T02:04:21Z</time>
      </trkpt>
      <trkpt lat="45.95286" lon="1.37776">
        <ele>407</ele>
        <time>2017-04-26T02:06:21Z</time>
      </trkpt>
      <trkpt lat="45.95289" lon="1.37841">
        <ele>406</ele>
        <time>2017-04-26T02:08:21Z</time>
      </trkpt>
      <trkpt lat="45.95304" lon="1.37909">
        <ele>405</ele>
        <time>2017-04-26T02:10:21Z</time>
      </trkpt>
      <trkpt lat="45.95313" lon="1.37973">
        <ele>404</ele>
        <time>2017-04-26T02:12:21Z</time>
      </trkpt>
      <trkpt lat="45.95312" lon="1.38027">
        <ele>405</ele>
        <time>2017-04-26T02:14:21Z</time>
      </trkpt>
      <trkpt lat="45.95332" lon="1.3815">
        <ele>410</ele>
        <time>2017-04-26T02:16:21Z</time>
      </trkpt>
      <trkpt lat="45.95297" lon="1.38182">
        <ele>409</ele>
        <time>2017-04-26T02:18:21Z</time>
      </trkpt>
      <trkpt lat="45.95276" lon="1.38189">
        <ele>408</ele>
        <time>2017-04-26T02:20:21Z</time>
      </trkpt>
      <trkpt lat="45.95247" lon="1.38215">
        <ele>410</ele>
        <time>2017-04-26T02:22:21Z</time>
      </trkpt>
      <trkpt lat="45.9524" lon="1.38229">
        <ele>411</ele>
        <time>2017-04-26T02:24:21Z</time>
      </trkpt>
      <trkpt lat="45.95234" lon="1.38256">
        <ele>413</ele>
        <time>2017-04-26T02:26:21Z</time>
      </trkpt>
      <trkpt lat="45.95229" lon="1.38286">
        <ele>413</ele>
        <time>2017-04-26T02:28:21Z</time>
      </trkpt>
      <trkpt lat="45.95223" lon="1.38331">
        <ele>413</ele>
        <time>2017-04-26T02:30:21Z</time>
      </trkpt>
      <trkpt lat="45.95221" lon="1.38384">
        <ele>410</ele>
        <time>2017-04-26T02:32:21Z</time>
      </trkpt>
      <trkpt lat="45.95221" lon="1.38425">
        <ele>408</ele>
        <time>2017-04-26T02:34:21Z</time>
      </trkpt>
      <trkpt lat="45.95213" lon="1.3845">
        <ele>407</ele>
        <time>2017-04-26T02:36:21Z</time>
      </trkpt>
      <trkpt lat="45.95205" lon="1.38479">
        <ele>406</ele>
        <time>2017-04-26T02:38:21Z</time>
      </trkpt>
      <trkpt lat="45.95192" lon="1.38509">
        <ele>405</ele>
        <time>2017-04-26T02:40:21Z</time>
      </trkpt>
      <trkpt lat="45.95185" lon="1.38546">
        <ele>404</ele>
        <time>2017-04-26T02:42:21Z</time>
      </trkpt>
      <trkpt lat="45.95185" lon="1.38582">
        <ele>402</ele>
        <time>2017-04-26T02:44:21Z</time>
      </trkpt>
      <trkpt lat="45.9518" lon="1.38618">
        <ele>399</ele>
        <time>2017-04-26T02:46:21Z</time>
      </trkpt>
      <trkpt lat="45.95171" lon="1.3865">
        <ele>397</ele>
        <time>2017-04-26T02:48:21Z</time>
      </trkpt>
      <trkpt lat="45.95147" lon="1.38689">
        <ele>396</ele>
        <time>2017-04-26T02:50:21Z</time>
      </trkpt>
      <trkpt lat="45.95165" lon="1.38709">
        <ele>395</ele>
        <time>2017-04-26T02:52:21Z</time>
      </trkpt>
      <trkpt lat="45.9518" lon="1.3873">
        <ele>395</ele>
        <time>2017-04-26T02:54:21Z</time>
      </trkpt>
      <trkpt lat="45.95185" lon="1.38758">
        <ele>395</ele>
        <time>2017-04-26T02:56:21Z</time>
      </trkpt>
      <trkpt lat="45.95195" lon="1.38798">
        <ele>395</ele>
        <time>2017-04-26T02:58:21Z</time>
      </trkpt>
      <trkpt lat="45.95207" lon="1.3884">
        <ele>396</ele>
        <time>2017-04-26T03:00:21Z</time>
      </trkpt>
      <trkpt lat="45.95199" lon="1.3887">
        <ele>396</ele>
        <time>2017-04-26T03:02:21Z</time>
      </trkpt>
      <trkpt lat="45.95187" lon="1.38905">
        <ele>395</ele>
        <time>2017-04-26T03:04:21Z</time>
      </trkpt>
    </trkseg>
  </trk>
</gpx>